Time;durP1;ratioP1;P1;durP2;ratioP2;P2;SDS_P1;SDS_P2;PMS_P1;PMS_P2;Temp;Humidity;BMP_temperature;BMP_pressure;BME280_temperature;BME280_humidity;BME280_pressure;Samples;Min_cycle;Max_cycle;Signal;HPM_P1;HPM_P2
2022/09/02 00:00:52;;;;;;;2.60;2.40;;;;;;;;;;5092738;28;20292;-32
2022/09/02 00:03:19;;;;;;;2.60;2.27;;;;;;;;;;5093183;28;20201;-30
2022/09/02 00:05:47;;;;;;;3.50;2.50;;;;;;;;;;5101699;28;20207;-32
2022/09/02 00:08:14;;;;;;;2.60;2.40;;;;;;;;;;5113592;28;20220;-32
2022/09/02 00:10:43;;;;;;;3.03;2.83;;;;;;;;;;5086867;28;20197;-32
2022/09/02 00:13:11;;;;;;;4.27;2.43;;;;;;;;;;5092794;28;20196;-33
2022/09/02 00:15:40;;;;;;;2.83;2.60;;;;;;;;;;5088493;28;20315;-30
2022/09/02 00:18:12;;;;;;;2.60;2.40;;;;;;;;;;5092493;28;20247;-34
2022/09/02 00:20:40;;;;;;;3.20;2.33;;;;;;;;;;5093618;28;20208;-33
2022/09/02 00:23:07;;;;;;;3.47;2.73;;;;;;;;;;5086045;28;20209;-35
2022/09/02 00:25:35;;;;;;;2.77;2.50;;;;;;;;;;5088399;28;20193;-32
2022/09/02 00:28:02;;;;;;;2.70;2.50;;;;;;;;;;5092856;28;20221;-31
2022/09/02 00:30:29;;;;;;;2.63;2.43;;;;;;;;;;5088147;28;20205;-33
2022/09/02 00:32:58;;;;;;;2.63;2.43;;;;;;;;;;5092076;28;20216;-34
2022/09/02 00:35:25;;;;;;;2.67;2.47;;;;;;;;;;5092427;28;20220;-32
2022/09/02 00:37:52;;;;;;;3.27;2.20;;;;;;;;;;5084522;28;20602;-32
2022/09/02 00:40:19;;;;;;;2.17;2.07;;;;;;;;;;5092207;28;20212;-34
2022/09/02 00:42:46;;;;;;;2.70;2.50;;;;;;;;;;5092383;28;20197;-30
2022/09/02 00:45:14;;;;;;;2.47;2.27;;;;;;;;;;5079795;28;20203;-35
2022/09/02 00:47:41;;;;;;;2.50;2.30;;;;;;;;;;5091282;28;20274;-32
2022/09/02 00:50:11;;;;;;;2.10;2.00;;;;;;;;;;5092906;28;20204;-31
2022/09/02 00:52:40;;;;;;;2.70;2.50;;;;;;;;;;5083549;28;20211;-31
2022/09/02 00:55:10;;;;;;;2.30;2.10;;;;;;;;;;5091289;28;20213;-29
2022/09/02 00:57:43;;;;;;;2.10;1.97;;;;;;;;;;5091645;28;20220;-33
2022/09/02 01:00:12;;;;;;;3.30;1.90;;;;;;;;;;5084348;28;20208;-32
2022/09/02 01:02:40;;;;;;;1.80;1.70;;;;;;;;;;5079470;28;20198;-32
2022/09/02 01:05:09;;;;;;;2.20;2.10;;;;;;;;;;5086560;28;20198;-32
2022/09/02 01:07:38;;;;;;;3.37;2.17;;;;;;;;;;5071772;28;20225;-33
2022/09/02 01:10:06;;;;;;;2.07;1.97;;;;;;;;;;5070577;28;20209;-30
2022/09/02 01:12:34;;;;;;;2.57;2.40;;;;;;;;;;5077294;28;20215;-33
2022/09/02 01:15:02;;;;;;;2.00;1.80;;;;;;;;;;5072882;28;20227;-34
2022/09/02 01:17:33;;;;;;;3.93;1.77;;;;;;;;;;5090991;28;20312;-35
2022/09/02 01:20:02;;;;;;;2.03;1.90;;;;;;;;;;5091890;28;20197;-33
2022/09/02 01:22:32;;;;;;;2.07;1.97;;;;;;;;;;5091541;28;20222;-31
2022/09/02 01:25:03;;;;;;;3.43;2.00;;;;;;;;;;5079957;28;20201;-33
2022/09/02 01:27:30;;;;;;;2.17;2.00;;;;;;;;;;5090891;28;20262;-33
2022/09/02 01:29:58;;;;;;;2.50;2.30;;;;;;;;;;5079411;28;20209;-34
2022/09/02 01:32:26;;;;;;;1.80;1.70;;;;;;;;;;5090907;28;20200;-33
2022/09/02 01:34:53;;;;;;;2.10;1.93;;;;;;;;;;5089160;28;20302;-33
2022/09/02 01:37:21;;;;;;;2.73;2.53;;;;;;;;;;5110447;28;20235;-31
2022/09/02 01:39:51;;;;;;;2.47;1.93;;;;;;;;;;5083121;28;20215;-32
2022/09/02 01:42:18;;;;;;;2.00;1.80;;;;;;;;;;5076649;28;20207;-32
2022/09/02 01:44:45;;;;;;;1.80;1.70;;;;;;;;;;5075825;28;20203;-31
2022/09/02 01:47:13;;;;;;;2.10;2.00;;;;;;;;;;5090067;28;20221;-33
2022/09/02 01:49:40;;;;;;;1.67;1.57;;;;;;;;;;5091938;28;20192;-31
2022/09/02 01:52:08;;;;;;;1.83;1.73;;;;;;;;;;5102387;28;20205;-32
2022/09/02 01:54:36;;;;;;;4.50;1.93;;;;;;;;;;5090130;28;20217;-30
2022/09/02 01:57:04;;;;;;;1.77;1.60;;;;;;;;;;5090710;28;20223;-31
2022/09/02 01:59:32;;;;;;;2.50;1.77;;;;;;;;;;5092595;28;20212;-34
2022/09/02 02:01:59;;;;;;;1.83;1.70;;;;;;;;;;5089136;28;20201;-30
2022/09/02 02:04:27;;;;;;;2.07;1.77;;;;;;;;;;5091617;28;20196;-33
2022/09/02 02:06:55;;;;;;;2.80;1.50;;;;;;;;;;5090769;28;20259;-31
2022/09/02 02:09:23;;;;;;;2.87;2.20;;;;;;;;;;5080195;28;20214;-32
2022/09/02 02:11:50;;;;;;;1.90;1.80;;;;;;;;;;5091132;28;20196;-33
2022/09/02 02:14:18;;;;;;;2.13;1.60;;;;;;;;;;5088883;28;20814;-31
2022/09/02 02:16:45;;;;;;;1.97;1.67;;;;;;;;;;5090872;28;20531;-34
2022/09/02 02:19:12;;;;;;;1.87;1.60;;;;;;;;;;5091155;28;20193;-33
2022/09/02 02:21:39;;;;;;;1.80;1.70;;;;;;;;;;5090876;28;20204;-34
2022/09/02 02:24:07;;;;;;;1.80;1.70;;;;;;;;;;5082326;28;20216;-33
2022/09/02 02:26:35;;;;;;;2.27;1.97;;;;;;;;;;5089054;28;20238;-34
2022/09/02 02:29:02;;;;;;;2.37;1.80;;;;;;;;;;5079909;28;20205;-31
2022/09/02 02:31:31;;;;;;;2.70;1.70;;;;;;;;;;5088719;28;20204;-33
2022/09/02 02:33:58;;;;;;;1.87;1.60;;;;;;;;;;5087212;28;20196;-34
2022/09/02 02:36:26;;;;;;;1.87;1.13;;;;;;;;;;5110020;28;20220;-35
2022/09/02 02:38:53;;;;;;;1.83;1.73;;;;;;;;;;5089279;28;20223;-31
2022/09/02 02:41:20;;;;;;;1.77;1.67;;;;;;;;;;5086773;28;20209;-34
2022/09/02 02:43:47;;;;;;;1.87;1.73;;;;;;;;;;5086193;28;20255;-34
2022/09/02 02:46:15;;;;;;;1.93;1.83;;;;;;;;;;5088152;28;20199;-34
2022/09/02 02:48:44;;;;;;;1.77;1.67;;;;;;;;;;5085260;28;20220;-32
2022/09/02 02:51:11;;;;;;;1.83;1.70;;;;;;;;;;5110172;28;20239;-33
2022/09/02 02:53:38;;;;;;;1.80;1.70;;;;;;;;;;5103139;28;20205;-34
2022/09/02 02:56:06;;;;;;;1.77;1.67;;;;;;;;;;5084192;28;20224;-34
2022/09/02 02:58:33;;;;;;;3.07;2.07;;;;;;;;;;5087464;28;20221;-31
2022/09/02 03:01:01;;;;;;;3.30;1.90;;;;;;;;;;5087322;28;20196;-32
2022/09/02 03:03:28;;;;;;;1.77;1.67;;;;;;;;;;5089728;28;20204;-35
2022/09/02 03:05:57;;;;;;;3.33;1.83;;;;;;;;;;5089410;28;20207;-30
2022/09/02 03:08:25;;;;;;;2.77;1.70;;;;;;;;;;5084146;28;20227;-30
2022/09/02 03:10:54;;;;;;;2.23;1.80;;;;;;;;;;5080545;28;20311;-32
2022/09/02 03:13:21;;;;;;;2.27;1.83;;;;;;;;;;5089194;28;20201;-33
2022/09/02 03:15:48;;;;;;;1.53;1.43;;;;;;;;;;5076939;28;20216;-32
2022/09/02 03:18:16;;;;;;;3.50;1.83;;;;;;;;;;5089143;28;20223;-31
2022/09/02 03:20:43;;;;;;;1.60;1.50;;;;;;;;;;5089606;28;20219;-32
2022/09/02 03:23:12;;;;;;;4.23;2.00;;;;;;;;;;5085488;28;20288;-33
2022/09/02 03:25:42;;;;;;;1.57;1.57;;;;;;;;;;5079603;28;20205;-34
2022/09/02 03:28:09;;;;;;;1.63;1.53;;;;;;;;;;5084744;28;20300;-31
2022/09/02 03:30:36;;;;;;;1.60;1.50;;;;;;;;;;5077296;28;20193;-31
2022/09/02 03:33:04;;;;;;;1.90;1.80;;;;;;;;;;5090242;28;20200;-31
2022/09/02 03:35:32;;;;;;;1.90;1.80;;;;;;;;;;5088903;28;20255;-32
2022/09/02 03:37:59;;;;;;;1.70;1.60;;;;;;;;;;5085547;28;20225;-32
2022/09/02 03:40:28;;;;;;;1.63;1.53;;;;;;;;;;5077525;28;20212;-34
2022/09/02 03:42:56;;;;;;;1.60;1.50;;;;;;;;;;5088780;28;20235;-32
2022/09/02 03:45:23;;;;;;;1.87;1.60;;;;;;;;;;5077851;28;20270;-32
2022/09/02 03:47:52;;;;;;;2.37;1.63;;;;;;;;;;5086680;28;20224;-31
2022/09/02 03:50:22;;;;;;;1.70;1.57;;;;;;;;;;5069675;28;20212;-33
2022/09/02 03:52:49;;;;;;;2.10;1.90;;;;;;;;;;5071775;28;20207;-33
2022/09/02 03:55:17;;;;;;;2.03;1.83;;;;;;;;;;5083220;28;20228;-31
2022/09/02 03:57:45;;;;;;;2.50;1.80;;;;;;;;;;5089680;28;20217;-30
2022/09/02 04:00:13;;;;;;;1.80;1.70;;;;;;;;;;5083862;28;20223;-32
2022/09/02 04:02:41;;;;;;;1.90;1.80;;;;;;;;;;5088087;28;20219;-32
2022/09/02 04:05:09;;;;;;;1.93;1.83;;;;;;;;;;5068656;28;20205;-32
2022/09/02 04:07:36;;;;;;;3.03;2.53;;;;;;;;;;5076155;28;20217;-32
2022/09/02 04:10:04;;;;;;;2.67;1.90;;;;;;;;;;5080500;28;20228;-32
2022/09/02 04:12:31;;;;;;;2.10;1.70;;;;;;;;;;5081755;28;20209;-33
2022/09/02 04:14:59;;;;;;;2.37;1.70;;;;;;;;;;5071666;28;20201;-31
2022/09/02 04:17:26;;;;;;;1.70;1.60;;;;;;;;;;5088959;28;20231;-31
2022/09/02 04:19:54;;;;;;;2.70;2.00;;;;;;;;;;5090215;28;20212;-35
2022/09/02 04:25:12;;;;;;;2.07;1.77;;;;;;;;;;5104427;28;20224;-35
2022/09/02 04:28:05;;;;;;;5.53;2.00;;;;;;;;;;5124966;27;20238;-34
2022/09/02 04:30:57;;;;;;;1.70;1.60;;;;;;;;;;5132219;27;20211;-37
2022/09/02 04:39:18;;;;;;;1.70;1.60;;;;;;;;;;5180095;22;20234;-37
2022/09/02 04:42:03;;;;;;;2.37;1.70;;;;;;;;;;5165147;27;20278;-38
2022/09/02 04:44:52;;;;;;;2.00;1.90;;;;;;;;;;5158839;27;20222;-35
2022/09/02 04:47:39;;;;;;;1.90;1.80;;;;;;;;;;5177672;22;20252;-33
2022/09/02 04:53:19;;;;;;;1.63;1.53;;;;;;;;;;5130520;27;20211;-35
2022/09/02 04:56:12;;;;;;;2.13;1.93;;;;;;;;;;5136310;27;20215;-33
2022/09/02 05:01:44;;;;;;;1.90;1.80;;;;;;;;;;5126196;27;20203;-38
2022/09/02 05:04:25;;;;;;;2.07;1.87;;;;;;;;;;5136390;27;20221;-34
2022/09/02 05:07:11;;;;;;;1.90;1.53;;;;;;;;;;5135265;27;20203;-38
2022/09/02 05:09:54;;;;;;;2.83;1.87;;;;;;;;;;5135465;27;20203;-31
2022/09/02 05:12:39;;;;;;;1.50;1.40;;;;;;;;;;5136083;27;20199;-34
2022/09/02 05:15:34;;;;;;;2.40;1.50;;;;;;;;;;5135265;27;20285;-32
2022/09/02 05:18:16;;;;;;;1.60;1.50;;;;;;;;;;5127342;27;20229;-35
2022/09/02 05:21:08;;;;;;;2.07;1.83;;;;;;;;;;5136064;27;20224;-35
2022/09/02 05:23:49;;;;;;;1.63;1.40;;;;;;;;;;5133995;27;20203;-33
2022/09/02 05:26:34;;;;;;;1.87;1.53;;;;;;;;;;5134902;27;20195;-31
2022/09/02 05:29:19;;;;;;;2.17;1.80;;;;;;;;;;5131857;27;20203;-36
2022/09/02 05:32:02;;;;;;;1.87;1.77;;;;;;;;;;5134720;27;20260;-33
2022/09/02 05:34:38;;;;;;;1.70;1.60;;;;;;;;;;5135407;27;20206;-34
2022/09/02 05:40:08;;;;;;;1.80;1.70;;;;;;;;;;5559017;22;20244;-36
2022/09/02 05:42:43;;;;;;;2.80;1.70;;;;;;;;;;5155989;27;20219;-31
2022/09/02 05:45:39;;;;;;;2.53;1.67;;;;;;;;;;5150436;27;20199;-33
2022/09/02 05:51:08;;;;;;;2.93;1.60;;;;;;;;;;5135221;27;20206;-31
2022/09/02 05:53:54;;;;;;;1.70;1.60;;;;;;;;;;5135317;27;20373;-35
2022/09/02 05:56:38;;;;;;;1.80;1.70;;;;;;;;;;5141624;27;20280;-34
2022/09/02 05:59:20;;;;;;;1.70;1.60;;;;;;;;;;5134508;27;20199;-33
2022/09/02 06:02:07;;;;;;;2.00;1.90;;;;;;;;;;5154796;27;20198;-36
2022/09/02 06:04:42;;;;;;;3.23;1.77;;;;;;;;;;5155848;27;20207;-36
2022/09/02 06:07:28;;;;;;;3.03;1.57;;;;;;;;;;5156304;27;20215;-37
2022/09/02 06:10:01;;;;;;;1.87;1.77;;;;;;;;;;5154979;27;20228;-36
2022/09/02 06:12:45;;;;;;;1.80;1.70;;;;;;;;;;5155772;27;20190;-39
2022/09/02 06:15:29;;;;;;;2.00;1.90;;;;;;;;;;5147175;27;20577;-34
2022/09/02 06:18:12;;;;;;;2.40;1.80;;;;;;;;;;5155753;27;20224;-37
2022/09/02 06:20:56;;;;;;;2.93;2.00;;;;;;;;;;5156394;27;20209;-36
2022/09/02 06:23:44;;;;;;;3.40;1.90;;;;;;;;;;5141548;27;20637;-37
2022/09/02 06:26:24;;;;;;;4.77;1.80;;;;;;;;;;5148310;27;20202;-35
2022/09/02 06:29:04;;;;;;;1.60;1.60;;;;;;;;;;5139806;27;20222;-31
2022/09/02 06:31:42;;;;;;;3.60;1.80;;;;;;;;;;5152490;27;20210;-35
2022/09/02 06:34:18;;;;;;;2.00;1.80;;;;;;;;;;5156064;27;20195;-39
2022/09/02 06:36:57;;;;;;;1.80;1.70;;;;;;;;;;5153660;27;20268;-34
2022/09/02 06:39:36;;;;;;;2.53;2.30;;;;;;;;;;5135544;27;20203;-32
2022/09/02 06:42:19;;;;;;;2.50;1.90;;;;;;;;;;5135417;27;20207;-38
2022/09/02 06:45:02;;;;;;;1.70;1.60;;;;;;;;;;5136965;27;20230;-36
2022/09/02 06:47:48;;;;;;;2.77;2.30;;;;;;;;;;5143851;27;20219;-34
2022/09/02 06:50:23;;;;;;;2.30;1.80;;;;;;;;;;5133738;27;20203;-33
2022/09/02 06:52:56;;;;;;;2.13;1.67;;;;;;;;;;5142902;27;20255;-30
2022/09/02 06:55:50;;;;;;;1.87;1.77;;;;;;;;;;5148162;27;20202;-32
2022/09/02 06:58:36;;;;;;;2.00;1.90;;;;;;;;;;5148651;27;20219;-32
2022/09/02 07:01:10;;;;;;;2.67;1.80;;;;;;;;;;5145688;27;20211;-36
2022/09/02 07:06:33;;;;;;;2.07;1.57;;;;;;;;;;5120116;27;20191;-33
2022/09/02 07:09:14;;;;;;;2.63;1.70;;;;;;;;;;5142825;27;20270;-36
2022/09/02 07:11:54;;;;;;;2.20;1.97;;;;;;;;;;5150837;27;20276;-36
2022/09/02 07:14:38;;;;;;;1.63;1.50;;;;;;;;;;5141077;27;20209;-40
2022/09/02 07:17:20;;;;;;;2.20;2.00;;;;;;;;;;5154114;27;20237;-36
2022/09/02 07:19:59;;;;;;;2.37;1.70;;;;;;;;;;5154868;27;20215;-35
2022/09/02 07:22:30;;;;;;;1.90;1.37;;;;;;;;;;5155771;27;20214;-35
2022/09/02 07:25:07;;;;;;;2.13;1.50;;;;;;;;;;5152878;27;20233;-36
2022/09/02 07:27:40;;;;;;;1.85;1.75;;;;;;;;;;5152523;27;20267;-38
2022/09/02 07:30:18;;;;;;;3.53;1.45;;;;;;;;;;5146601;27;20268;-37
2022/09/02 07:33:01;;;;;;;2.63;1.52;;;;;;;;;;5146052;27;20202;-33
2022/09/02 07:35:38;;;;;;;2.10;1.45;;;;;;;;;;5154872;27;20289;-38
2022/09/02 07:38:18;;;;;;;1.50;1.40;;;;;;;;;;5149223;27;20238;-34
2022/09/02 07:41:07;;;;;;;1.33;1.23;;;;;;;;;;5133425;27;20213;-31
2022/09/02 07:44:09;;;;;;;1.80;1.30;;;;;;;;;;5153437;27;20202;-36
2022/09/02 07:46:47;;;;;;;5.57;1.83;;;;;;;;;;5142026;27;20194;-34
2022/09/02 07:49:40;;;;;;;1.73;1.40;;;;;;;;;;5154899;27;20202;-37
2022/09/02 07:52:20;;;;;;;2.93;1.57;;;;;;;;;;5151607;27;20200;-37
2022/09/02 07:55:00;;;;;;;2.13;1.50;;;;;;;;;;5143423;27;20206;-32
2022/09/02 07:57:38;;;;;;;2.00;1.67;;;;;;;;;;5151987;27;20247;-36
2022/09/02 08:00:15;;;;;;;1.50;1.40;;;;;;;;;;5144244;27;20206;-34
2022/09/02 08:02:54;;;;;;;1.63;1.17;;;;;;;;;;5137290;27;20222;-35
2022/09/02 08:05:28;;;;;;;1.80;1.53;;;;;;;;;;5137897;27;20209;-33
2022/09/02 08:08:20;;;;;;;1.83;1.30;;;;;;;;;;5138607;27;20230;-34
2022/09/02 08:14:22;;;;;;;2.40;1.50;;;;;;;;;;5154100;27;20205;-35
2022/09/02 08:17:09;;;;;;;3.20;1.43;;;;;;;;;;5149647;27;20229;-32
2022/09/02 08:19:58;;;;;;;1.40;1.30;;;;;;;;;;5159820;27;20202;-36
2022/09/02 08:22:48;;;;;;;2.20;1.50;;;;;;;;;;5151742;27;20246;-33
2022/09/02 08:25:44;;;;;;;1.70;1.60;;;;;;;;;;5145504;27;20194;-34
2022/09/02 08:28:48;;;;;;;2.25;1.23;;;;;;;;;;5169283;22;20238;-36
2022/09/02 08:31:38;;;;;;;1.40;1.30;;;;;;;;;;5107272;28;20195;-35
2022/09/02 08:40:33;;;;;;;2.03;1.48;;;;;;;;;;5105426;28;20631;-37
2022/09/02 08:49:08;;;;;;;1.40;1.30;;;;;;;;;;5168429;22;20230;-35
2022/09/02 08:51:56;;;;;;;3.00;1.30;;;;;;;;;;5157054;27;20206;-39
2022/09/02 08:55:08;;;;;;;1.63;1.17;;;;;;;;;;5146944;27;20258;-36
2022/09/02 09:01:47;;;;;;;1.75;1.10;;;;;;;;;;5163793;27;20198;-33
2022/09/02 09:07:50;;;;;;;1.65;1.48;;;;;;;;;;5180357;27;20266;-35
2022/09/02 09:23:08;;;;;;;1.02;1.00;;;;;;;;;;5165271;27;20206;-33
2022/09/02 09:26:00;;;;;;;1.42;0.75;;;;;;;;;;5164462;27;20200;-38
2022/09/02 09:32:08;;;;;;;1.23;1.00;;;;;;;;;;5171932;27;20205;-37
2022/09/02 09:35:15;;;;;;;0.80;0.80;;;;;;;;;;5180435;27;20201;-33
2022/09/02 09:38:10;;;;;;;0.88;0.88;;;;;;;;;;5180081;27;20248;-37
2022/09/02 09:50:29;;;;;;;0.90;0.90;;;;;;;;;;5159160;27;20238;-33
2022/09/02 09:56:31;;;;;;;2.00;1.13;;;;;;;;;;5164596;27;20207;-33
2022/09/02 09:59:31;;;;;;;1.13;1.03;;;;;;;;;;5178018;27;20312;-34
2022/09/02 10:08:48;;;;;;;0.70;0.70;;;;;;;;;;5133137;22;20234;-36
2022/09/02 10:23:33;;;;;;;1.03;0.90;;;;;;;;;;5167751;22;20232;-31
2022/09/02 10:26:07;;;;;;;1.00;0.83;;;;;;;;;;5152139;27;20281;-33
2022/09/02 10:28:43;;;;;;;1.27;0.87;;;;;;;;;;5151100;27;20251;-33
2022/09/02 10:31:12;;;;;;;0.93;0.87;;;;;;;;;;5130370;27;20293;-33
2022/09/02 10:33:47;;;;;;;0.70;0.70;;;;;;;;;;5131517;27;20214;-32
2022/09/02 10:36:17;;;;;;;1.30;1.20;;;;;;;;;;5112062;28;20212;-35
2022/09/02 10:38:50;;;;;;;4.13;0.73;;;;;;;;;;5125507;27;20316;-33
2022/09/02 10:41:26;;;;;;;0.80;0.80;;;;;;;;;;5147623;27;20198;-31
2022/09/02 10:44:02;;;;;;;0.80;0.80;;;;;;;;;;5146450;27;20453;-33
2022/09/02 10:46:34;;;;;;;1.47;1.00;;;;;;;;;;5131604;27;20207;-32
2022/09/02 10:49:04;;;;;;;1.47;0.87;;;;;;;;;;5132176;27;20240;-32
2022/09/02 10:51:36;;;;;;;0.90;0.90;;;;;;;;;;5132097;27;20291;-34
2022/09/02 10:54:10;;;;;;;1.90;1.13;;;;;;;;;;5132555;27;20204;-31
2022/09/02 10:56:41;;;;;;;3.37;1.00;;;;;;;;;;5139621;27;20244;-33
2022/09/02 10:59:10;;;;;;;1.67;1.07;;;;;;;;;;5129366;27;20205;-34
2022/09/02 11:01:42;;;;;;;2.10;1.00;;;;;;;;;;5138978;27;20236;-32
2022/09/02 11:04:10;;;;;;;1.77;1.20;;;;;;;;;;5131272;27;20717;-33
2022/09/02 11:06:40;;;;;;;0.80;0.80;;;;;;;;;;5129278;27;20209;-31
2022/09/02 11:09:10;;;;;;;2.60;0.90;;;;;;;;;;5130747;27;20194;-30
2022/09/02 11:11:40;;;;;;;1.10;0.87;;;;;;;;;;5147474;27;20201;-33
2022/09/02 11:14:12;;;;;;;1.47;0.80;;;;;;;;;;5133612;27;20202;-33
2022/09/02 11:16:42;;;;;;;2.37;0.90;;;;;;;;;;5137845;27;20194;-32
2022/09/02 11:19:12;;;;;;;0.97;0.97;;;;;;;;;;5130576;27;20220;-33
2022/09/02 11:21:48;;;;;;;2.07;1.00;;;;;;;;;;5128354;27;20200;-34
2022/09/02 11:24:20;;;;;;;0.90;0.90;;;;;;;;;;5125582;27;20611;-35
2022/09/02 11:26:52;;;;;;;0.87;0.87;;;;;;;;;;5148247;27;20221;-32
2022/09/02 11:29:21;;;;;;;1.30;1.20;;;;;;;;;;5127397;27;20671;-32
2022/09/02 11:31:51;;;;;;;1.23;0.97;;;;;;;;;;5146567;27;20307;-31
2022/09/02 11:34:22;;;;;;;2.93;1.00;;;;;;;;;;5144691;27;20288;-34
2022/09/02 11:36:49;;;;;;;0.83;0.83;;;;;;;;;;5147815;27;20505;-32
2022/09/02 11:39:20;;;;;;;1.03;0.90;;;;;;;;;;5133528;27;20230;-31
2022/09/02 11:42:00;;;;;;;3.33;1.20;;;;;;;;;;5144362;27;20193;-34
2022/09/02 11:47:40;;;;;;;1.00;0.90;;;;;;;;;;5152723;27;20704;-35
2022/09/02 11:50:24;;;;;;;0.90;0.90;;;;;;;;;;5135911;27;20282;-31
2022/09/02 11:52:57;;;;;;;0.87;0.87;;;;;;;;;;5134949;27;20195;-33
2022/09/02 11:55:29;;;;;;;2.60;1.07;;;;;;;;;;5142404;27;20202;-33
2022/09/02 11:58:00;;;;;;;0.93;0.90;;;;;;;;;;5135783;27;20234;-33
2022/09/02 12:00:29;;;;;;;0.87;0.87;;;;;;;;;;5130068;27;20222;-33
2022/09/02 12:03:00;;;;;;;2.43;1.20;;;;;;;;;;5155427;27;20210;-32
2022/09/02 12:05:48;;;;;;;2.00;1.13;;;;;;;;;;5144443;27;20292;-30
2022/09/02 12:08:38;;;;;;;2.50;1.03;;;;;;;;;;5130889;27;20260;-32
2022/09/02 12:11:07;;;;;;;1.33;1.23;;;;;;;;;;5140314;27;20280;-31
2022/09/02 12:13:37;;;;;;;1.40;1.30;;;;;;;;;;5134979;27;20200;-32
2022/09/02 12:16:30;;;;;;;1.30;1.20;;;;;;;;;;5127924;27;20198;-32
2022/09/02 12:19:12;;;;;;;1.17;0.90;;;;;;;;;;5133987;27;20228;-31
2022/09/02 12:22:04;;;;;;;1.13;1.10;;;;;;;;;;5141503;27;20199;-31
2022/09/02 12:24:48;;;;;;;1.53;1.20;;;;;;;;;;5137733;27;20682;-31
2022/09/02 12:27:22;;;;;;;1.70;1.10;;;;;;;;;;5132723;27;20226;-33
2022/09/02 12:29:49;;;;;;;2.35;0.88;;;;;;;;;;5130168;27;20255;-32
2022/09/02 12:32:31;;;;;;;2.90;1.40;;;;;;;;;;5129162;27;20287;-31
2022/09/02 12:35:08;;;;;;;1.27;1.13;;;;;;;;;;5112927;28;20282;-32
2022/09/02 12:37:51;;;;;;;1.50;1.40;;;;;;;;;;5114168;28;20249;-33
2022/09/02 12:40:24;;;;;;;1.00;1.00;;;;;;;;;;5129576;27;20299;-33
2022/09/02 12:42:52;;;;;;;1.03;1.00;;;;;;;;;;5136540;27;20605;-33
2022/09/02 12:45:24;;;;;;;1.13;0.80;;;;;;;;;;5134736;27;20203;-34
2022/09/02 12:47:57;;;;;;;2.00;1.10;;;;;;;;;;5135773;27;20229;-33
2022/09/02 12:50:27;;;;;;;2.05;1.10;;;;;;;;;;5155939;27;20352;-31
2022/09/02 12:53:07;;;;;;;1.20;1.03;;;;;;;;;;5140357;27;20226;-34
2022/09/02 12:55:37;;;;;;;1.00;1.00;;;;;;;;;;5141872;27;20303;-33
2022/09/02 12:58:09;;;;;;;1.20;1.10;;;;;;;;;;5132215;27;20230;-30
2022/09/02 13:00:40;;;;;;;1.30;1.20;;;;;;;;;;5138534;27;20640;-32
2022/09/02 13:03:20;;;;;;;2.43;1.00;;;;;;;;;;5137738;27;20194;-31
2022/09/02 13:05:54;;;;;;;1.50;1.13;;;;;;;;;;5156386;27;20245;-29
2022/09/02 13:08:37;;;;;;;1.30;1.07;;;;;;;;;;5138681;27;20286;-29
2022/09/02 13:11:23;;;;;;;1.53;1.20;;;;;;;;;;5141974;27;20601;-30
2022/09/02 13:14:04;;;;;;;2.40;1.17;;;;;;;;;;5140286;27;20285;-31
2022/09/02 13:16:37;;;;;;;1.08;0.90;;;;;;;;;;5145470;27;20194;-28
2022/09/02 13:19:11;;;;;;;1.70;1.00;;;;;;;;;;5136989;27;20218;-30
2022/09/02 13:21:48;;;;;;;1.10;1.10;;;;;;;;;;5155578;27;20193;-30
2022/09/02 13:24:30;;;;;;;1.83;1.00;;;;;;;;;;5139729;27;20211;-29
2022/09/02 13:27:05;;;;;;;1.00;1.00;;;;;;;;;;5107467;27;20250;-32
2022/09/02 13:30:00;;;;;;;2.28;1.23;;;;;;;;;;5124182;27;20194;-32
2022/09/02 13:32:29;;;;;;;1.27;1.07;;;;;;;;;;5136784;27;20199;-30
2022/09/02 13:34:58;;;;;;;2.00;1.00;;;;;;;;;;5132988;27;20238;-32
2022/09/02 13:37:29;;;;;;;1.10;1.03;;;;;;;;;;5133378;27;20305;-29
2022/09/02 13:39:56;;;;;;;1.70;0.88;;;;;;;;;;5130855;27;20234;-32
2022/09/02 13:42:24;;;;;;;1.20;1.10;;;;;;;;;;5146086;27;20213;-31
2022/09/02 13:44:51;;;;;;;1.80;1.00;;;;;;;;;;5139543;27;20205;-29
2022/09/02 13:47:20;;;;;;;2.77;1.00;;;;;;;;;;5144243;27;20260;-28
2022/09/02 13:49:48;;;;;;;1.38;1.17;;;;;;;;;;5153618;27;20254;-29
2022/09/02 13:52:18;;;;;;;1.17;1.15;;;;;;;;;;5153968;27;20217;-30
2022/09/02 13:54:47;;;;;;;2.72;1.10;;;;;;;;;;5135732;27;20262;-29
2022/09/02 13:57:18;;;;;;;1.17;1.07;;;;;;;;;;5140064;27;20223;-28
2022/09/02 13:59:48;;;;;;;1.47;1.00;;;;;;;;;;5128373;27;20219;-31
2022/09/02 14:02:21;;;;;;;1.23;1.10;;;;;;;;;;5130892;27;20561;-27
2022/09/02 14:04:50;;;;;;;1.73;1.20;;;;;;;;;;5149822;27;20570;-29
2022/09/02 14:07:19;;;;;;;1.08;1.02;;;;;;;;;;5153563;27;20275;-30
2022/09/02 14:09:47;;;;;;;1.37;1.27;;;;;;;;;;5131662;27;20692;-29
2022/09/02 14:12:16;;;;;;;1.98;1.02;;;;;;;;;;5136801;27;20284;-31
2022/09/02 14:14:43;;;;;;;1.25;1.00;;;;;;;;;;5121056;27;20198;-31
2022/09/02 14:17:22;;;;;;;0.90;0.90;;;;;;;;;;5147686;27;20218;-31
2022/09/02 14:19:52;;;;;;;1.77;1.10;;;;;;;;;;5150202;27;20218;-30
2022/09/02 14:22:23;;;;;;;1.83;1.10;;;;;;;;;;5147998;27;22839;-29
2022/09/02 14:24:50;;;;;;;1.05;1.00;;;;;;;;;;5133640;27;20213;-29
2022/09/02 14:27:21;;;;;;;0.95;0.95;;;;;;;;;;5130795;27;20306;-32
2022/09/02 14:29:50;;;;;;;4.07;1.30;;;;;;;;;;5129389;27;20198;-30
2022/09/02 14:32:23;;;;;;;1.55;1.30;;;;;;;;;;5131052;27;20221;-30
2022/09/02 14:35:09;;;;;;;1.00;1.00;;;;;;;;;;5131015;27;20195;-30
2022/09/02 14:37:47;;;;;;;2.80;1.10;;;;;;;;;;5132886;27;20223;-31
2022/09/02 14:40:15;;;;;;;2.47;1.45;;;;;;;;;;5131410;27;20211;-30
2022/09/02 14:42:46;;;;;;;3.15;1.10;;;;;;;;;;5136905;27;20747;-28
2022/09/02 14:45:13;;;;;;;1.67;1.10;;;;;;;;;;5134856;27;20252;-31
2022/09/02 14:47:42;;;;;;;1.50;0.95;;;;;;;;;;5133490;27;20294;-30
2022/09/02 14:50:11;;;;;;;1.20;1.10;;;;;;;;;;5133814;27;20207;-31
2022/09/02 14:52:38;;;;;;;0.80;0.80;;;;;;;;;;5129846;27;20256;-31
2022/09/02 14:55:06;;;;;;;1.15;1.00;;;;;;;;;;5135117;27;20205;-32
2022/09/02 14:57:34;;;;;;;1.60;1.10;;;;;;;;;;5136717;27;20212;-29
2022/09/02 15:00:02;;;;;;;1.73;1.07;;;;;;;;;;5122294;27;20291;-31
2022/09/02 15:02:32;;;;;;;0.90;0.90;;;;;;;;;;5138339;27;20498;-32
2022/09/02 15:05:02;;;;;;;3.70;1.10;;;;;;;;;;5145721;27;21171;-30
2022/09/02 15:07:30;;;;;;;1.00;0.98;;;;;;;;;;5140458;27;20585;-30
2022/09/02 15:09:57;;;;;;;0.98;0.85;;;;;;;;;;5150293;27;20201;-30
2022/09/02 15:12:25;;;;;;;1.55;1.00;;;;;;;;;;5138156;27;20195;-28
2022/09/02 15:14:52;;;;;;;3.95;1.15;;;;;;;;;;5134434;27;20203;-30
2022/09/02 15:17:20;;;;;;;1.02;1.00;;;;;;;;;;5138898;27;20225;-31
2022/09/02 15:19:47;;;;;;;1.25;1.05;;;;;;;;;;5136109;27;20243;-31
2022/09/02 15:22:16;;;;;;;0.98;0.98;;;;;;;;;;5131029;27;20202;-31
2022/09/02 15:24:43;;;;;;;1.08;1.00;;;;;;;;;;5124470;27;20199;-32
2022/09/02 15:27:11;;;;;;;0.90;0.90;;;;;;;;;;5127132;27;20302;-31
2022/09/02 15:29:38;;;;;;;1.00;0.95;;;;;;;;;;5128028;27;20206;-32
2022/09/02 15:32:06;;;;;;;0.90;0.90;;;;;;;;;;5145400;27;20195;-28
2022/09/02 15:34:34;;;;;;;1.10;1.05;;;;;;;;;;5151133;27;20198;-30
2022/09/02 15:37:01;;;;;;;0.70;0.70;;;;;;;;;;5151388;27;20230;-31
2022/09/02 15:39:29;;;;;;;0.88;0.88;;;;;;;;;;5137258;27;20714;-32
2022/09/02 15:41:57;;;;;;;0.77;0.77;;;;;;;;;;5141680;27;20280;-28
2022/09/02 15:44:25;;;;;;;1.00;0.90;;;;;;;;;;5134515;27;20230;-29
2022/09/02 15:46:52;;;;;;;0.83;0.83;;;;;;;;;;5131204;27;20593;-29
2022/09/02 15:49:20;;;;;;;0.77;0.77;;;;;;;;;;5145174;27;20205;-30
2022/09/02 15:51:51;;;;;;;1.63;1.10;;;;;;;;;;5145464;27;20207;-32
2022/09/02 15:54:19;;;;;;;1.23;1.00;;;;;;;;;;5141002;27;20203;-32
2022/09/02 15:56:48;;;;;;;0.90;0.83;;;;;;;;;;5145378;27;20199;-31
2022/09/02 15:59:16;;;;;;;1.20;1.10;;;;;;;;;;5129906;27;20221;-32
2022/09/02 16:01:44;;;;;;;4.20;1.02;;;;;;;;;;5129459;27;20214;-28
2022/09/02 16:04:12;;;;;;;0.98;0.98;;;;;;;;;;5144225;27;20198;-28
2022/09/02 16:06:40;;;;;;;1.67;1.10;;;;;;;;;;5148826;27;20195;-29
2022/09/02 16:09:07;;;;;;;1.73;1.63;;;;;;;;;;5133009;27;20199;-30
2022/09/02 16:11:37;;;;;;;1.20;1.07;;;;;;;;;;5127478;27;20692;-30
2022/09/02 16:14:05;;;;;;;1.85;1.60;;;;;;;;;;5121799;27;20203;-28
2022/09/02 16:16:34;;;;;;;2.30;0.90;;;;;;;;;;5125812;27;20277;-29
2022/09/02 16:19:02;;;;;;;2.03;1.00;;;;;;;;;;5121840;27;20310;-30
2022/09/02 16:21:29;;;;;;;0.90;0.90;;;;;;;;;;5131211;27;20276;-30
2022/09/02 16:26:44;;;;;;;6.13;1.10;;;;;;;;;;5376430;22;20292;-42
2022/09/02 16:32:38;;;;;;;1.80;1.03;;;;;;;;;;5099456;28;20203;-45
2022/09/02 16:35:24;;;;;;;2.17;0.93;;;;;;;;;;5119030;28;20222;-46
2022/09/02 17:00:09;;;;;;;1.03;0.80;;;;;;;;;;5251894;22;20230;-43
2022/09/02 17:17:58;;;;;;;1.10;0.93;;;;;;;;;;5098618;28;20230;-42
2022/09/02 17:30:18;;;;;;;3.23;0.90;;;;;;;;;;5024689;28;20241;-37
2022/09/02 17:33:08;;;;;;;1.30;1.20;;;;;;;;;;5024296;28;20297;-36
2022/09/02 17:35:46;;;;;;;1.33;1.23;;;;;;;;;;5029612;28;20211;-37
2022/09/02 17:38:16;;;;;;;1.67;1.20;;;;;;;;;;5029547;28;20285;-37
2022/09/02 17:43:57;;;;;;;1.70;1.07;;;;;;;;;;5018105;28;20229;-35
2022/09/02 17:46:30;;;;;;;1.83;1.17;;;;;;;;;;5016760;28;20205;-34
2022/09/02 17:49:01;;;;;;;1.00;0.90;;;;;;;;;;5029478;28;20234;-37
2022/09/02 17:51:31;;;;;;;2.00;1.03;;;;;;;;;;5029183;28;20206;-35
2022/09/02 17:53:59;;;;;;;1.10;1.10;;;;;;;;;;5023569;28;20216;-36
2022/09/02 17:56:42;;;;;;;3.70;1.20;;;;;;;;;;5025450;28;20214;-36